createdAt,value
2018-02-22T00:00:39.951Z,2.33
2018-02-22T00:01:20.496Z,2.32
2018-02-22T00:02:01.045Z,2.31
2018-02-22T00:02:41.665Z,2.36
2018-02-22T00:03:22.227Z,2.35
2018-02-22T00:04:02.777Z,2.35
2018-02-22T00:04:43.325Z,2.38
2018-02-22T00:05:23.878Z,2.35
2018-02-22T00:06:04.445Z,2.35
2018-02-22T00:06:44.980Z,2.33
2018-02-22T00:07:25.546Z,2.33
2018-02-22T00:08:06.102Z,2.28
2018-02-22T00:08:46.659Z,2.32
2018-02-22T00:09:27.236Z,2.29
2018-02-22T00:10:07.801Z,2.28
2018-02-22T00:10:48.353Z,2.31
2018-02-22T00:11:28.911Z,2.33
2018-02-22T00:12:09.458Z,2.31
2018-02-22T00:12:50.000Z,2.35
2018-02-22T00:13:30.583Z,2.31
2018-02-22T00:14:11.114Z,2.24
2018-02-22T00:14:51.681Z,2.24
2018-02-22T00:15:32.376Z,2.22
2018-02-22T00:16:12.866Z,2.24
2018-02-22T00:16:53.433Z,2.22
2018-02-22T00:17:34.009Z,2.15
2018-02-22T00:18:14.550Z,2.18
2018-02-22T00:18:55.112Z,2.24
2018-02-22T00:19:35.671Z,2.24
2018-02-22T00:20:16.230Z,2.24
2018-02-22T00:20:56.792Z,2.24
2018-02-22T00:21:37.347Z,2.24
2018-02-22T00:22:17.918Z,2.22
2018-02-22T00:22:58.466Z,2.26
2018-02-22T00:23:39.030Z,2.24
2018-02-22T00:24:19.580Z,2.22
2018-02-22T00:25:00.146Z,2.26
2018-02-22T00:25:40.699Z,2.22
2018-02-22T00:26:21.265Z,2.25
2018-02-22T00:27:01.834Z,2.15
2018-02-22T00:27:42.386Z,2.18
2018-02-22T00:28:22.937Z,2.29
2018-02-22T00:29:03.510Z,2.18
2018-02-22T00:29:44.073Z,2.15
2018-02-22T00:30:24.658Z,2.17
2018-02-22T00:31:05.219Z,2.18
2018-02-22T00:31:45.767Z,2.26
2018-02-22T00:32:26.348Z,2.14
2018-02-22T00:33:06.902Z,2.13
2018-02-22T00:33:47.461Z,2.14
2018-02-22T00:34:28.005Z,2.25
2018-02-22T00:35:08.563Z,2.18
2018-02-22T00:35:49.104Z,2.14
2018-02-22T00:36:29.652Z,2.13
2018-02-22T00:37:10.206Z,2.06
2018-02-22T00:37:50.750Z,2.11
2018-02-22T00:38:31.296Z,2.13
2018-02-22T00:39:11.873Z,2.13
2018-02-22T00:39:52.451Z,2.1
2018-02-22T00:40:33.002Z,2.14
2018-02-22T00:41:13.584Z,2.11
2018-02-22T00:41:54.137Z,2.15
2018-02-22T00:42:34.709Z,2.14
2018-02-22T00:43:15.262Z,2.13
2018-02-22T00:43:55.828Z,2.18
2018-02-22T00:44:36.386Z,2.15
2018-02-22T00:45:16.929Z,2.14
2018-02-22T00:45:57.512Z,2.14
2018-02-22T00:46:38.096Z,2.08
2018-02-22T00:47:18.674Z,2.13
2018-02-22T00:47:59.234Z,2.14
2018-02-22T00:48:39.837Z,2.13
2018-02-22T00:49:20.389Z,2.11
2018-02-22T00:50:00.942Z,2.14
2018-02-22T00:50:41.491Z,2.08
2018-02-22T00:51:22.045Z,2.15
2018-02-22T00:52:02.590Z,2.13
2018-02-22T00:52:43.148Z,2.07
2018-02-22T00:53:23.762Z,2.1
2018-02-22T00:54:04.329Z,2.17
2018-02-22T00:54:44.874Z,2.1
2018-02-22T00:55:25.426Z,2.15
2018-02-22T00:56:05.996Z,2.15
2018-02-22T00:56:46.549Z,2.15
2018-02-22T00:57:27.114Z,2.1
2018-02-22T00:58:07.659Z,2.1
2018-02-22T00:58:48.223Z,2.08
2018-02-22T00:59:28.749Z,2.11
2018-02-22T01:00:09.301Z,2.07
2018-02-22T01:00:49.855Z,2.06
2018-02-22T01:01:30.429Z,2.06
2018-02-22T01:02:10.998Z,2.1
2018-02-22T01:02:51.532Z,2.08
2018-02-22T01:03:32.109Z,2.07
2018-02-22T01:04:12.698Z,2.13
2018-02-22T01:04:53.411Z,1.99
2018-02-22T01:05:33.969Z,1.97
2018-02-22T01:06:14.520Z,2.08
2018-02-22T01:06:55.150Z,2.04
2018-02-22T01:07:35.746Z,2.02
2018-02-22T01:08:16.350Z,2
2018-02-22T01:08:56.903Z,2.07
2018-02-22T01:09:37.457Z,1.99
2018-02-22T01:10:18.022Z,2.04
2018-02-22T01:10:58.682Z,2.06
2018-02-22T01:11:39.182Z,2
2018-02-22T01:12:19.737Z,2.07
2018-02-22T01:13:00.282Z,1.97
2018-02-22T01:13:40.846Z,2
2018-02-22T01:14:21.399Z,2
2018-02-22T01:15:01.943Z,2
2018-02-22T01:15:42.494Z,2.02
2018-02-22T01:16:23.055Z,2
2018-02-22T01:17:03.614Z,1.92
2018-02-22T01:17:44.223Z,1.99
2018-02-22T01:18:24.810Z,2.04
2018-02-22T01:19:05.483Z,1.91
2018-02-22T01:19:46.024Z,1.95
2018-02-22T01:20:26.571Z,1.99
2018-02-22T01:21:07.145Z,1.99
2018-02-22T01:21:47.730Z,2.02
2018-02-22T01:22:28.318Z,2
2018-02-22T01:23:08.896Z,2
2018-02-22T01:23:49.445Z,2.06
2018-02-22T01:24:30.185Z,2.02
2018-02-22T01:25:11.277Z,2.06
2018-02-22T01:25:52.001Z,1.97
2018-02-22T01:26:32.534Z,2.04
2018-02-22T01:27:13.080Z,1.97
2018-02-22T01:27:53.660Z,1.97
2018-02-22T01:28:34.220Z,2.11
2018-02-22T01:29:14.772Z,2.04
2018-02-22T01:29:55.321Z,2.07
2018-02-22T01:30:35.876Z,2.04
2018-02-22T01:31:16.485Z,2.07
2018-02-22T01:31:57.043Z,2.06
2018-02-22T01:32:37.682Z,2.13
2018-02-22T01:33:18.233Z,2.04
2018-02-22T01:33:58.789Z,2.1
2018-02-22T01:34:39.545Z,2.08
2018-02-22T01:35:20.034Z,2.1
2018-02-22T01:36:00.640Z,2.08
2018-02-22T01:36:41.183Z,2.08
2018-02-22T01:37:21.827Z,2.08
2018-02-22T01:38:02.411Z,2.08
2018-02-22T01:38:43.328Z,2.1
2018-02-22T01:39:24.098Z,2.04
2018-02-22T01:40:04.630Z,2.02
2018-02-22T01:40:45.175Z,2.08
2018-02-22T01:41:25.722Z,2.06
2018-02-22T01:42:06.298Z,2.04
2018-02-22T01:42:46.864Z,2.06
2018-02-22T01:43:27.428Z,2.13
2018-02-22T01:44:07.982Z,1.99
2018-02-22T01:44:48.605Z,2.08
2018-02-22T01:45:29.164Z,2.06
2018-02-22T01:46:09.771Z,2.14
2018-02-22T01:46:50.322Z,2.07
2018-02-22T01:47:30.865Z,2.07
2018-02-22T01:48:11.421Z,2
2018-02-22T01:48:51.988Z,2.04
2018-02-22T01:49:32.541Z,2.14
2018-02-22T01:50:13.077Z,2.04
2018-02-22T01:50:53.631Z,2.08
2018-02-22T01:51:34.343Z,1.99
2018-02-22T01:52:14.807Z,2
2018-02-22T01:52:55.410Z,2
2018-02-22T01:53:35.936Z,2
2018-02-22T01:54:16.550Z,2
2018-02-22T01:54:57.085Z,2
2018-02-22T01:55:37.662Z,1.99
2018-02-22T01:56:18.190Z,1.92
2018-02-22T01:56:58.763Z,1.94
2018-02-22T01:57:39.336Z,1.94
2018-02-22T01:58:19.888Z,1.97
2018-02-22T01:59:00.437Z,1.92
2018-02-22T01:59:41.021Z,1.95
2018-02-22T02:00:21.568Z,1.94
2018-02-22T02:01:02.121Z,2
2018-02-22T02:01:42.671Z,1.99
2018-02-22T02:02:23.229Z,1.94
2018-02-22T02:03:03.987Z,2.02
2018-02-22T02:03:44.351Z,2.02
2018-02-22T02:04:24.980Z,2
2018-02-22T02:05:05.472Z,2.02
2018-02-22T02:05:46.024Z,1.95
2018-02-22T02:06:26.582Z,2.04
2018-02-22T02:07:07.132Z,2.04
2018-02-22T02:07:47.688Z,2.06
2018-02-22T02:08:28.343Z,1.99
2018-02-22T02:09:08.830Z,2
2018-02-22T02:09:49.495Z,2.02
2018-02-22T02:10:29.985Z,2
2018-02-22T02:11:10.654Z,1.95
2018-02-22T02:11:51.287Z,2.11
2018-02-22T02:12:31.796Z,2.1
2018-02-22T02:13:12.341Z,2.1
2018-02-22T02:13:52.879Z,2.14
2018-02-22T02:14:33.415Z,2.14
2018-02-22T02:15:13.980Z,2.13
2018-02-22T02:15:54.549Z,2.13
2018-02-22T02:16:35.189Z,2.11
2018-02-22T02:17:15.697Z,2.06
2018-02-22T02:17:56.308Z,2.1
2018-02-22T02:18:36.855Z,2.13
2018-02-22T02:19:17.425Z,2.1
2018-02-22T02:19:57.961Z,2.08
2018-02-22T02:20:38.542Z,2.1
2018-02-22T02:21:19.102Z,2.08
2018-02-22T02:21:59.681Z,2.11
2018-02-22T02:22:40.236Z,2.08
2018-02-22T02:23:20.790Z,2.13
2018-02-22T02:24:01.421Z,2.13
2018-02-22T02:24:42.074Z,2.13
2018-02-22T02:25:22.645Z,2.08
2018-02-22T02:26:03.181Z,2.08
2018-02-22T02:26:43.730Z,2.13
2018-02-22T02:27:24.403Z,2.11
2018-02-22T02:28:04.981Z,2.11
2018-02-22T02:28:45.606Z,2.14
2018-02-22T02:29:26.158Z,2.1
2018-02-22T02:30:06.726Z,2.1
2018-02-22T02:30:47.296Z,2.14
2018-02-22T02:31:27.871Z,2.14
2018-02-22T02:32:08.403Z,2.11
2018-02-22T02:32:48.952Z,2.1
2018-02-22T02:33:29.564Z,2.08
2018-02-22T02:34:10.115Z,2.07
2018-02-22T02:34:50.694Z,2.07
2018-02-22T02:35:31.232Z,2.08
2018-02-22T02:36:11.791Z,2.07
2018-02-22T02:36:52.337Z,2.04
2018-02-22T02:37:32.901Z,2.06
2018-02-22T02:38:13.457Z,1.95
2018-02-22T02:38:53.990Z,2.04
2018-02-22T02:39:34.560Z,1.94
2018-02-22T02:40:15.108Z,1.99
2018-02-22T02:40:55.669Z,2.02
2018-02-22T02:41:36.242Z,2.02
2018-02-22T02:42:16.804Z,2.04
2018-02-22T02:42:57.363Z,2
2018-02-22T02:43:37.916Z,2.04
2018-02-22T02:44:18.480Z,2.02
2018-02-22T02:44:59.033Z,2.06
2018-02-22T02:45:39.611Z,1.94
2018-02-22T02:46:20.162Z,2
2018-02-22T02:47:00.724Z,2.02
2018-02-22T02:47:41.290Z,2.11
2018-02-22T02:48:21.851Z,1.99
2018-02-22T02:49:02.412Z,2.04
2018-02-22T02:49:42.992Z,2.02
2018-02-22T02:50:23.551Z,2
2018-02-22T02:51:04.127Z,2.02
2018-02-22T02:51:44.679Z,2
2018-02-22T02:52:25.250Z,2.02
2018-02-22T02:53:05.797Z,1.99
2018-02-22T02:53:46.347Z,2.02
2018-02-22T02:54:26.895Z,1.95
2018-02-22T02:55:07.451Z,1.99
2018-02-22T02:55:47.992Z,2
2018-02-22T02:56:28.566Z,1.95
2018-02-22T02:57:09.115Z,2.02
2018-02-22T02:57:49.657Z,1.97
2018-02-22T02:58:30.204Z,2.04
2018-02-22T02:59:10.759Z,1.92
2018-02-22T02:59:51.332Z,1.89
2018-02-22T03:00:31.893Z,1.95
2018-02-22T03:01:12.476Z,1.95
2018-02-22T03:01:53.050Z,1.92
2018-02-22T03:02:33.612Z,2
2018-02-22T03:03:14.164Z,1.92
2018-02-22T03:03:54.726Z,1.94
2018-02-22T03:04:35.398Z,1.97
2018-02-22T03:05:15.869Z,1.97
2018-02-22T03:05:56.428Z,1.95
2018-02-22T03:06:37.038Z,2
2018-02-22T03:07:17.566Z,1.94
2018-02-22T03:07:58.105Z,1.92
2018-02-22T03:08:38.667Z,1.99
2018-02-22T03:09:19.249Z,1.95
2018-02-22T03:10:00.012Z,1.94
2018-02-22T03:10:40.571Z,1.92
2018-02-22T03:11:21.131Z,1.94
2018-02-22T03:12:01.689Z,1.94
2018-02-22T03:12:42.235Z,1.89
2018-02-22T03:13:22.785Z,1.95
2018-02-22T03:14:03.338Z,1.91
2018-02-22T03:14:43.888Z,2.04
2018-02-22T03:15:24.450Z,1.94
2018-02-22T03:16:05.012Z,1.99
2018-02-22T03:16:45.585Z,1.94
2018-02-22T03:17:26.151Z,2
2018-02-22T03:18:06.684Z,1.94
2018-02-22T03:18:47.242Z,1.97
2018-02-22T03:19:27.804Z,2
2018-02-22T03:20:08.360Z,2.02
2018-02-22T03:20:48.908Z,1.95
2018-02-22T03:21:29.463Z,2.04
2018-02-22T03:22:10.023Z,1.99
2018-02-22T03:22:50.577Z,2.02
2018-02-22T03:23:31.139Z,2.02
2018-02-22T03:24:11.712Z,2
2018-02-22T03:24:52.258Z,2.02
2018-02-22T03:25:32.859Z,2.02
2018-02-22T03:26:13.424Z,1.94
2018-02-22T03:26:53.982Z,1.97
2018-02-22T03:27:34.536Z,2.04
2018-02-22T03:28:15.083Z,2.02
2018-02-22T03:28:55.627Z,2
2018-02-22T03:29:36.177Z,2.06
2018-02-22T03:30:16.727Z,2
2018-02-22T03:30:57.269Z,1.99
2018-02-22T03:31:37.824Z,2.04
2018-02-22T03:32:18.388Z,2.04
2018-02-22T03:32:58.953Z,1.95
2018-02-22T03:33:39.516Z,2.08
2018-02-22T03:34:20.061Z,1.95
2018-02-22T03:35:00.621Z,2.02
2018-02-22T03:35:41.204Z,2.07
2018-02-22T03:36:21.796Z,2
2018-02-22T03:37:02.346Z,2.04
2018-02-22T03:37:42.903Z,2.02
2018-02-22T03:38:23.455Z,1.97
2018-02-22T03:39:03.997Z,2.07
2018-02-22T03:39:44.551Z,1.97
2018-02-22T03:40:25.103Z,2.04
2018-02-22T03:41:05.653Z,1.97
2018-02-22T03:41:46.250Z,2.04
2018-02-22T03:42:26.950Z,1.97
2018-02-22T03:43:07.786Z,2.06
2018-02-22T03:43:48.311Z,1.94
2018-02-22T03:44:28.936Z,2.02
2018-02-22T03:45:09.487Z,2.02
2018-02-22T03:45:50.363Z,1.99
2018-02-22T03:46:31.407Z,1.95
2018-02-22T03:47:12.155Z,1.92
2018-02-22T03:47:53.014Z,1.94
2018-02-22T03:48:33.609Z,1.95
2018-02-22T03:49:14.154Z,1.94
2018-02-22T03:49:54.702Z,1.91
2018-02-22T03:50:35.250Z,1.94
2018-02-22T03:51:15.928Z,1.97
2018-02-22T03:51:56.476Z,1.92
2018-02-22T03:52:37.022Z,1.88
2018-02-22T03:53:17.699Z,1.95
2018-02-22T03:53:58.470Z,1.92
2018-02-22T03:54:39.443Z,1.94
2018-02-22T03:55:20.324Z,1.94
2018-02-22T03:56:00.968Z,1.89
2018-02-22T03:56:42.022Z,1.91
2018-02-22T03:57:22.858Z,2
2018-02-22T03:58:03.565Z,1.92
2018-02-22T03:58:44.542Z,1.95
2018-02-22T03:59:25.123Z,1.91
2018-02-22T04:00:05.676Z,1.92
2018-02-22T04:00:46.682Z,1.99
2018-02-22T04:01:27.298Z,1.88
2018-02-22T04:02:07.855Z,1.91
2018-02-22T04:02:48.412Z,1.94
2018-02-22T04:03:28.964Z,1.85
2018-02-22T04:04:09.514Z,1.94
2018-02-22T04:04:50.077Z,1.76
2018-02-22T04:05:30.620Z,1.91
2018-02-22T04:06:11.171Z,1.81
2018-02-22T04:06:51.724Z,1.84
2018-02-22T04:07:32.274Z,1.78
2018-02-22T04:08:12.834Z,1.76
2018-02-22T04:08:53.388Z,1.78
2018-02-22T04:09:33.930Z,1.8
2018-02-22T04:10:14.491Z,1.8
2018-02-22T04:10:55.030Z,1.77
2018-02-22T04:11:35.581Z,1.78
2018-02-22T04:12:16.138Z,1.8
2018-02-22T04:12:56.689Z,1.76
2018-02-22T04:13:37.238Z,1.74
2018-02-22T04:14:17.819Z,1.77
2018-02-22T04:14:58.365Z,1.8
2018-02-22T04:15:38.912Z,1.76
2018-02-22T04:16:19.479Z,1.68
2018-02-22T04:17:00.022Z,1.76
2018-02-22T04:17:40.588Z,1.76
2018-02-22T04:18:21.140Z,1.76
2018-02-22T04:19:01.697Z,1.78
2018-02-22T04:19:42.253Z,1.76
2018-02-22T04:20:22.828Z,1.71
2018-02-22T04:21:03.383Z,1.74
2018-02-22T04:21:43.941Z,1.74
2018-02-22T04:22:24.503Z,1.78
2018-02-22T04:23:05.054Z,1.74
2018-02-22T04:23:45.599Z,1.77
2018-02-22T04:24:26.157Z,1.7
2018-02-22T04:25:06.761Z,1.73
2018-02-22T04:25:47.338Z,1.74
2018-02-22T04:26:27.889Z,1.68
2018-02-22T04:27:08.638Z,1.77
2018-02-22T04:27:49.193Z,1.73
2018-02-22T04:28:29.750Z,1.73
2018-02-22T04:29:10.309Z,1.77
2018-02-22T04:29:50.861Z,1.81
2018-02-22T04:30:31.402Z,1.85
2018-02-22T04:31:11.965Z,1.73
2018-02-22T04:31:52.505Z,1.71
2018-02-22T04:32:33.089Z,1.7
2018-02-22T04:33:13.743Z,1.74
2018-02-22T04:33:54.266Z,1.68
2018-02-22T04:34:34.826Z,1.71
2018-02-22T04:35:15.387Z,1.67
2018-02-22T04:35:55.914Z,1.7
2018-02-22T04:36:36.478Z,1.7
2018-02-22T04:37:17.036Z,1.62
2018-02-22T04:37:57.568Z,1.67
2018-02-22T04:38:38.127Z,1.6
2018-02-22T04:39:18.680Z,1.6
2018-02-22T04:39:59.234Z,1.56
2018-02-22T04:40:39.804Z,1.68
2018-02-22T04:41:20.334Z,1.63
2018-02-22T04:42:00.882Z,1.56
2018-02-22T04:42:41.435Z,1.53
2018-02-22T04:43:22.010Z,1.56
2018-02-22T04:44:02.549Z,1.55
2018-02-22T04:44:43.101Z,1.52
2018-02-22T04:45:23.659Z,1.58
2018-02-22T04:46:04.203Z,1.5
2018-02-22T04:46:44.738Z,1.59
2018-02-22T04:47:25.294Z,1.49
2018-02-22T04:48:05.844Z,1.45
2018-02-22T04:48:46.421Z,1.48
2018-02-22T04:49:26.950Z,1.49
2018-02-22T04:50:07.507Z,1.53
2018-02-22T04:50:48.051Z,1.5
2018-02-22T04:51:28.605Z,1.49
2018-02-22T04:52:09.150Z,1.5
2018-02-22T04:52:49.691Z,1.48
2018-02-22T04:53:30.246Z,1.53
2018-02-22T04:54:10.818Z,1.53
2018-02-22T04:54:51.373Z,1.45
2018-02-22T04:55:31.923Z,1.41
2018-02-22T04:56:12.474Z,1.45
2018-02-22T04:56:53.022Z,1.48
2018-02-22T04:57:33.574Z,1.48
2018-02-22T04:58:14.107Z,1.38
2018-02-22T04:58:54.661Z,1.38
2018-02-22T04:59:35.237Z,1.41
2018-02-22T05:00:15.762Z,1.42
2018-02-22T05:00:56.327Z,1.4
2018-02-22T05:01:36.863Z,1.31
2018-02-22T05:02:17.425Z,1.31
2018-02-22T05:02:57.999Z,1.31
2018-02-22T05:03:38.520Z,1.35
2018-02-22T05:04:19.087Z,1.32
2018-02-22T05:04:59.628Z,1.31
2018-02-22T05:05:40.177Z,1.31
2018-02-22T05:06:20.735Z,1.31
2018-02-22T05:07:01.282Z,1.31
2018-02-22T05:07:41.824Z,1.28
2018-02-22T05:08:22.385Z,1.28
2018-02-22T05:09:02.932Z,1.32
2018-02-22T05:09:43.488Z,1.38
2018-02-22T05:10:24.047Z,1.26
2018-02-22T05:11:04.587Z,1.32
2018-02-22T05:11:45.140Z,1.28
2018-02-22T05:12:25.699Z,1.26
2018-02-22T05:13:06.238Z,1.23
2018-02-22T05:13:46.827Z,1.24
2018-02-22T05:14:27.345Z,1.26
2018-02-22T05:15:07.897Z,1.23
2018-02-22T05:15:48.452Z,1.3
2018-02-22T05:16:29.001Z,1.28
2018-02-22T05:17:09.547Z,1.28
2018-02-22T05:17:50.102Z,1.22
2018-02-22T05:18:30.664Z,1.22
2018-02-22T05:19:11.222Z,1.17
2018-02-22T05:19:51.774Z,1.22
2018-02-22T05:20:32.319Z,1.16
2018-02-22T05:21:12.873Z,1.17
2018-02-22T05:21:53.431Z,1.22
2018-02-22T05:22:33.975Z,1.26
2018-02-22T05:23:14.529Z,1.22
2018-02-22T05:23:55.083Z,1.14
2018-02-22T05:24:35.656Z,1.28
2018-02-22T05:25:16.206Z,1.22
2018-02-22T05:25:56.771Z,1.23
2018-02-22T05:26:37.344Z,1.17
2018-02-22T05:27:17.927Z,1.19
2018-02-22T05:27:58.483Z,1.22
2018-02-22T05:28:39.036Z,1.22
2018-02-22T05:29:19.594Z,1.19
2018-02-22T05:30:00.191Z,1.14
2018-02-22T05:30:40.775Z,1.17
2018-02-22T05:31:21.339Z,1.12
2018-02-22T05:32:01.904Z,1.17
2018-02-22T05:32:42.466Z,1.14
2018-02-22T05:33:23.021Z,1.1
2018-02-22T05:34:03.612Z,1.19
2018-02-22T05:34:44.193Z,1.19
2018-02-22T05:35:24.737Z,1.16
2018-02-22T05:36:05.327Z,1.17
2018-02-22T05:36:46.217Z,1.17
2018-02-22T05:37:26.798Z,1.06
2018-02-22T05:38:07.348Z,1.1
2018-02-22T05:38:47.911Z,1.06
2018-02-22T05:39:28.466Z,1.13
2018-02-22T05:40:09.031Z,1.12
2018-02-22T05:40:49.576Z,1.16
2018-02-22T05:41:30.123Z,1.17
2018-02-22T05:42:10.674Z,1.1
2018-02-22T05:42:51.228Z,1.17
2018-02-22T05:43:31.781Z,1.17
2018-02-22T05:44:12.328Z,1.2
2018-02-22T05:44:52.920Z,1.12
2018-02-22T05:45:33.482Z,1.19
2018-02-22T05:46:14.047Z,1.12
2018-02-22T05:46:54.608Z,1.04
2018-02-22T05:47:35.174Z,1.12
2018-02-22T05:48:15.726Z,1.1
2018-02-22T05:48:56.280Z,1.13
2018-02-22T05:49:37.088Z,1.14
2018-02-22T05:50:17.647Z,1.14
2018-02-22T05:50:58.216Z,1.16
2018-02-22T05:51:38.768Z,1.12
2018-02-22T05:52:19.346Z,1.2
2018-02-22T05:52:59.885Z,1.16
2018-02-22T05:53:40.445Z,1.12
2018-02-22T05:54:20.993Z,1.17
2018-02-22T05:55:01.610Z,1.1
2018-02-22T05:55:42.122Z,1.2
2018-02-22T05:56:22.672Z,1.14
2018-02-22T05:57:03.220Z,1.1
2018-02-22T05:57:43.760Z,1.14
2018-02-22T05:58:24.321Z,1.13
2018-02-22T05:59:04.892Z,1.2
2018-02-22T05:59:45.455Z,1.16
2018-02-22T06:00:26.016Z,1.16
2018-02-22T06:01:06.607Z,1.06
2018-02-22T06:01:47.157Z,1.16
2018-02-22T06:02:27.722Z,1.19
2018-02-22T06:03:08.272Z,1.22
2018-02-22T06:03:48.808Z,1.12
2018-02-22T06:04:29.376Z,1.13
2018-02-22T06:05:09.923Z,1.08
2018-02-22T06:05:50.475Z,1.08
2018-02-22T06:06:31.029Z,1.13
2018-02-22T06:07:11.585Z,1.14
2018-02-22T06:07:52.122Z,1.08
2018-02-22T06:08:32.696Z,1.17
2018-02-22T06:09:13.246Z,1.13
2018-02-22T06:09:53.847Z,1.06
2018-02-22T06:10:34.409Z,1.17
2018-02-22T06:11:14.964Z,1.1
2018-02-22T06:11:55.517Z,1.02
2018-02-22T06:12:36.052Z,1.05
2018-02-22T06:13:16.610Z,1.1
2018-02-22T06:13:57.167Z,1.1
2018-02-22T06:14:37.713Z,1.06
2018-02-22T06:15:18.287Z,1.1
2018-02-22T06:15:58.928Z,1.08
2018-02-22T06:16:39.399Z,1.1
2018-02-22T06:17:19.956Z,1.14
2018-02-22T06:18:00.508Z,1.17
2018-02-22T06:18:41.064Z,1.16
2018-02-22T06:19:21.641Z,1.14
2018-02-22T06:20:02.142Z,1.14
2018-02-22T06:20:42.692Z,1.17
2018-02-22T06:21:23.300Z,1.1
2018-02-22T06:22:03.821Z,1.1
2018-02-22T06:22:44.380Z,1.19
2018-02-22T06:23:24.941Z,1.14
2018-02-22T06:24:05.567Z,1.16
2018-02-22T06:24:46.147Z,1.17
2018-02-22T06:25:26.699Z,1.17
2018-02-22T06:26:07.259Z,1.16
2018-02-22T06:26:47.812Z,1.17
2018-02-22T06:27:28.361Z,1.19
2018-02-22T06:28:08.920Z,1.1
2018-02-22T06:28:49.488Z,1.13
2018-02-22T06:29:30.046Z,1.17
2018-02-22T06:30:10.634Z,1.13
2018-02-22T06:30:51.170Z,1.06
2018-02-22T06:31:31.731Z,1.08
2018-02-22T06:32:12.280Z,1.17
2018-02-22T06:32:52.839Z,1.08
2018-02-22T06:33:33.385Z,1.22
2018-02-22T06:34:13.968Z,1.13
2018-02-22T06:34:54.509Z,1.08
2018-02-22T06:35:35.062Z,1.06
2018-02-22T06:36:15.652Z,1.22
2018-02-22T06:36:56.202Z,1.13
2018-02-22T06:37:36.763Z,1.1
2018-02-22T06:38:17.327Z,1.1
2018-02-22T06:38:57.877Z,1.08
2018-02-22T06:39:38.432Z,1.16
2018-02-22T06:40:19.005Z,1.06
2018-02-22T06:40:59.657Z,1.06
2018-02-22T06:41:40.194Z,1.14
2018-02-22T06:42:20.743Z,1.19
2018-02-22T06:43:01.299Z,1.12
2018-02-22T06:43:41.861Z,1.16
2018-02-22T06:44:22.397Z,1.14
2018-02-22T06:45:02.928Z,1.13
2018-02-22T06:45:43.520Z,1.17
2018-02-22T06:46:24.052Z,1.1
2018-02-22T06:47:04.611Z,1.08
2018-02-22T06:47:45.150Z,1.17
2018-02-22T06:48:25.715Z,1.06
2018-02-22T06:49:06.274Z,1.1
2018-02-22T06:49:46.845Z,1.14
2018-02-22T06:50:27.434Z,1.08
2018-02-22T06:51:07.990Z,1.17
2018-02-22T06:51:48.562Z,1.08
2018-02-22T06:52:29.339Z,1.17
2018-02-22T06:53:10.445Z,1.17
2018-02-22T06:53:51.528Z,1.17
2018-02-22T06:54:32.368Z,1.17
2018-02-22T06:55:13.751Z,1.16
2018-02-22T06:55:54.646Z,1.16
2018-02-22T06:56:35.193Z,1.13
2018-02-22T06:57:15.776Z,1.12
2018-02-22T06:57:56.362Z,1.14
2018-02-22T06:58:36.904Z,1.13
2018-02-22T06:59:18.245Z,1.06
2018-02-22T06:59:58.995Z,1.22
2018-02-22T07:00:40.036Z,1.2
2018-02-22T07:01:20.973Z,1.2
2018-02-22T07:02:01.875Z,1.17
2018-02-22T07:02:42.977Z,1.16
2018-02-22T07:03:24.139Z,1.16
2018-02-22T07:04:04.685Z,1.2
2018-02-22T07:04:45.254Z,1.28
2018-02-22T07:05:25.816Z,1.2
2018-02-22T07:06:07.278Z,1.2
2018-02-22T07:06:48.076Z,1.3
2018-02-22T07:07:29.186Z,1.23
2018-02-22T07:08:09.994Z,1.28
2018-02-22T07:08:50.731Z,1.19
2018-02-22T07:09:31.538Z,1.22
2018-02-22T07:10:12.473Z,1.28
2018-02-22T07:10:56.171Z,1.28
2018-02-22T07:11:36.865Z,1.16
2018-02-22T07:12:17.431Z,1.2
2018-02-22T07:12:57.982Z,1.17
2018-02-22T07:13:38.535Z,1.17
2018-02-22T07:14:19.574Z,1.2
2018-02-22T07:15:00.432Z,1.23
2018-02-22T07:15:41.401Z,1.22
2018-02-22T07:16:21.907Z,1.23
2018-02-22T07:17:02.491Z,1.2
2018-02-22T07:17:43.037Z,1.22
2018-02-22T07:18:23.586Z,1.2
2018-02-22T07:19:04.135Z,1.2
2018-02-22T07:19:44.691Z,1.17
2018-02-22T07:20:25.248Z,1.19
2018-02-22T07:21:05.824Z,1.2
2018-02-22T07:21:46.412Z,1.1
2018-02-22T07:22:26.979Z,1.22
2018-02-22T07:23:16.651Z,1.1
2018-02-22T07:23:48.116Z,1.22
2018-02-22T07:24:28.700Z,1.12
2018-02-22T07:25:09.256Z,1.23
2018-02-22T07:25:49.825Z,1.17
2018-02-22T07:26:30.657Z,1.22
2018-02-22T07:27:11.345Z,1.1
2018-02-22T07:27:51.854Z,1.1
2018-02-22T07:28:32.415Z,1.16
2018-02-22T07:29:12.996Z,1.14
2018-02-22T07:29:53.575Z,1.22
2018-02-22T07:30:34.318Z,1.13
2018-02-22T07:31:14.889Z,1.1
2018-02-22T07:31:55.426Z,1.08
2018-02-22T07:32:36.138Z,1.12
2018-02-22T07:33:16.702Z,1.12
2018-02-22T07:33:57.251Z,1.06
2018-02-22T07:34:37.851Z,1.16
2018-02-22T07:35:18.414Z,1.06
2018-02-22T07:35:59.021Z,1.05
2018-02-22T07:36:39.588Z,1.04
2018-02-22T07:37:20.145Z,1.04
2018-02-22T07:38:00.702Z,1.06
2018-02-22T07:38:41.254Z,1.05
2018-02-22T07:39:21.800Z,1.08
2018-02-22T07:40:02.362Z,1.13
2018-02-22T07:40:42.966Z,1.06
2018-02-22T07:41:23.777Z,1.04
2018-02-22T07:42:04.330Z,1.13
2018-02-22T07:42:45.043Z,1.05
2018-02-22T07:43:25.628Z,1.19
2018-02-22T07:44:06.235Z,1.14
2018-02-22T07:44:46.800Z,1.2
2018-02-22T07:45:27.368Z,1.12
2018-02-22T07:46:07.903Z,1.06
2018-02-22T07:46:48.494Z,1.13
2018-02-22T07:47:29.059Z,1.2
2018-02-22T07:48:09.695Z,1.13
2018-02-22T07:48:50.370Z,1.14
2018-02-22T07:49:31.322Z,1.14
2018-02-22T07:50:11.896Z,1.06
2018-02-22T07:50:52.495Z,1.05
2018-02-22T07:51:33.221Z,1.08
2018-02-22T07:52:14.175Z,1.2
2018-02-22T07:52:54.842Z,1.2
2018-02-22T07:53:35.519Z,1.17
2018-02-22T07:54:16.666Z,1.13
2018-02-22T07:54:57.150Z,1.19
2018-02-22T07:55:38.548Z,1.19
2018-02-22T07:56:19.618Z,1.17
2018-02-22T07:57:01.360Z,1.22
2018-02-22T07:57:42.442Z,1.26
2018-02-22T07:58:23.206Z,1.24
2018-02-22T07:59:03.880Z,1.28
2018-02-22T07:59:44.615Z,1.32
2018-02-22T08:00:25.384Z,1.3
2018-02-22T08:01:06.275Z,1.37
2018-02-22T08:01:46.856Z,1.34
2018-02-22T08:02:27.487Z,1.34
2018-02-22T08:03:08.442Z,1.42
2018-02-22T08:03:49.609Z,1.38
2018-02-22T08:04:30.362Z,1.48
2018-02-22T08:05:11.925Z,1.42
2018-02-22T08:05:54.084Z,1.48
2018-02-22T08:06:34.853Z,1.53
2018-02-22T08:07:15.397Z,1.49
2018-02-22T08:07:56.049Z,1.49
2018-02-22T08:08:36.881Z,1.52
2018-02-22T08:09:17.423Z,1.55
2018-02-22T08:09:58.178Z,1.62
2018-02-22T08:10:39.273Z,1.66
2018-02-22T08:11:20.092Z,1.67
2018-02-22T08:12:00.660Z,1.74
2018-02-22T08:12:41.212Z,1.91
2018-02-22T08:13:21.790Z,2.04
2018-02-22T08:14:02.433Z,2.24
2018-02-22T08:14:43.108Z,2.42
2018-02-22T08:15:23.722Z,2.71
2018-02-22T08:16:04.288Z,3.03
2018-02-22T08:16:44.987Z,3.25
2018-02-22T08:17:25.630Z,3.8
2018-02-22T08:18:06.527Z,4.16
2018-02-22T08:18:47.317Z,4.52
2018-02-22T08:19:27.872Z,4.78
2018-02-22T08:20:08.423Z,5.26
2018-02-22T08:20:49.244Z,5.53
2018-02-22T08:21:29.975Z,5.89
2018-02-22T08:22:10.901Z,6.07
2018-02-22T08:22:51.560Z,6.36
2018-02-22T08:23:32.299Z,6.66
2018-02-22T08:24:12.880Z,6.74
2018-02-22T08:24:53.434Z,7
2018-02-22T08:25:34.014Z,7.23
2018-02-22T08:26:14.583Z,7.32
2018-02-22T08:26:55.261Z,7.6
2018-02-22T08:27:35.874Z,7.7
2018-02-22T08:28:16.569Z,7.9
2018-02-22T08:28:57.137Z,8.18
2018-02-22T08:29:37.688Z,8.36
2018-02-22T08:30:18.254Z,8.46
2018-02-22T08:30:58.890Z,8.64
2018-02-22T08:31:39.459Z,8.78
2018-02-22T08:32:20.329Z,8.95
2018-02-22T08:33:01.836Z,9.13
2018-02-22T08:33:43.095Z,9.32
2018-02-22T08:34:24.220Z,9.36
2018-02-22T08:35:05.204Z,9.5
2018-02-22T08:35:46.208Z,9.54
2018-02-22T08:36:27.040Z,9.62
2018-02-22T08:37:07.671Z,9.74
2018-02-22T08:37:48.919Z,9.74
2018-02-22T08:38:29.902Z,9.77
2018-02-22T08:39:11.367Z,9.79
2018-02-22T08:39:52.473Z,9.97
2018-02-22T08:40:33.316Z,9.94
2018-02-22T08:41:14.113Z,9.99
2018-02-22T08:41:55.644Z,10.01
2018-02-22T08:42:36.296Z,10.16
2018-02-22T08:43:17.452Z,10.15
2018-02-22T08:43:58.611Z,10.22
2018-02-22T08:44:41.489Z,10.34
2018-02-22T08:45:22.502Z,10.37
2018-02-22T08:46:03.797Z,10.46
2018-02-22T08:46:44.767Z,10.61
2018-02-22T08:47:26.072Z,10.63
2018-02-22T08:48:08.191Z,10.75
2018-02-22T08:48:49.168Z,10.76
2018-02-22T08:49:30.220Z,10.84
2018-02-22T08:50:11.360Z,10.92
2018-02-22T08:50:52.147Z,10.89
2018-02-22T08:51:32.844Z,11.07
2018-02-22T08:52:13.604Z,11
2018-02-22T08:52:54.324Z,10.99
2018-02-22T08:53:35.403Z,11.04
2018-02-22T08:54:16.746Z,11.05
2018-02-22T08:54:58.352Z,11.07
2018-02-22T08:55:39.485Z,11.07
2018-02-22T08:56:20.052Z,11.26
2018-02-22T08:57:00.631Z,11.23
2018-02-22T08:57:41.212Z,11.29
2018-02-22T08:58:21.774Z,11.26
2018-02-22T08:59:02.338Z,11.17
2018-02-22T08:59:42.927Z,11.12
2018-02-22T09:00:23.515Z,11.07
2018-02-22T09:01:04.094Z,11.07
2018-02-22T09:01:44.684Z,10.92
2018-02-22T09:02:25.285Z,10.86
2018-02-22T09:03:05.850Z,10.76
2018-02-22T09:03:46.391Z,10.76
2018-02-22T09:04:26.966Z,10.6